sensor_id;sensor_type;location;lat;lon;timestamp;pressure;altitude;pressure_sealevel;temperature;humidity
25080;BME280;13071;48.868;9.996;2023-02-02T00:02:11;96982.91;;;3.38;100.00
25080;BME280;13071;48.868;9.996;2023-02-02T00:04:37;96981.28;;;3.42;100.00
25080;BME280;13071;48.868;9.996;2023-02-02T00:07:04;96980.81;;;3.35;100.00
25080;BME280;13071;48.868;9.996;2023-02-02T00:09:32;96983.53;;;3.25;100.00
25080;BME280;13071;48.868;9.996;2023-02-02T00:11:59;96980.81;;;3.35;100.00
25080;BME280;13071;48.868;9.996;2023-02-02T00:14:28;96978.69;;;3.27;100.00
25080;BME280;13071;48.868;9.996;2023-02-02T00:16:55;96975.50;;;3.25;100.00
25080;BME280;13071;48.868;9.996;2023-02-02T00:19:23;96981.66;;;3.25;100.00
25080;BME280;13071;48.868;9.996;2023-02-02T00:21:50;96981.59;;;3.35;100.00
25080;BME280;13071;48.868;9.996;2023-02-02T00:24:18;96983.47;;;3.35;100.00
25080;BME280;13071;48.868;9.996;2023-02-02T00:26:46;96977.59;;;3.33;100.00
25080;BME280;13071;48.868;9.996;2023-02-02T00:29:15;96973.84;;;3.34;100.00
25080;BME280;13071;48.868;9.996;2023-02-02T00:31:43;96980.28;;;3.28;100.00
25080;BME280;13071;48.868;9.996;2023-02-02T00:34:10;96980.88;;;3.20;100.00
25080;BME280;13071;48.868;9.996;2023-02-02T00:36:37;96984.31;;;3.30;100.00
25080;BME280;13071;48.868;9.996;2023-02-02T00:39:04;96984.53;;;3.34;100.00
25080;BME280;13071;48.868;9.996;2023-02-02T00:41:31;96979.75;;;3.21;100.00
25080;BME280;13071;48.868;9.996;2023-02-02T00:43:58;96974.72;;;3.19;100.00
25080;BME280;13071;48.868;9.996;2023-02-02T00:46:43;96972.53;;;3.21;100.00
25080;BME280;13071;48.868;9.996;2023-02-02T00:49:10;96972.53;;;3.21;100.00
25080;BME280;13071;48.868;9.996;2023-02-02T00:51:36;96968.53;;;3.24;100.00
25080;BME280;13071;48.868;9.996;2023-02-02T00:54:03;96969.34;;;3.24;100.00
25080;BME280;13071;48.868;9.996;2023-02-02T00:56:30;96963.22;;;3.19;100.00
25080;BME280;13071;48.868;9.996;2023-02-02T00:58:56;96962.22;;;2.94;100.00
25080;BME280;13071;48.868;9.996;2023-02-02T01:01:24;96963.53;;;3.02;100.00
25080;BME280;13071;48.868;9.996;2023-02-02T01:03:52;96972.31;;;3.13;100.00
25080;BME280;13071;48.868;9.996;2023-02-02T01:06:19;96979.03;;;3.10;100.00
25080;BME280;13071;48.868;9.996;2023-02-02T01:08:46;96968.59;;;3.09;100.00
25080;BME280;13071;48.868;9.996;2023-02-02T01:11:12;96973.94;;;3.09;100.00
25080;BME280;13071;48.868;9.996;2023-02-02T01:13:39;96973.69;;;3.05;100.00
25080;BME280;13071;48.868;9.996;2023-02-02T01:16:06;96969.66;;;3.08;100.00
25080;BME280;13071;48.868;9.996;2023-02-02T01:18:32;96980.09;;;3.09;100.00
25080;BME280;13071;48.868;9.996;2023-02-02T01:21:03;96975.00;;;3.13;100.00
25080;BME280;13071;48.868;9.996;2023-02-02T01:23:31;96973.94;;;3.14;100.00
25080;BME280;13071;48.868;9.996;2023-02-02T01:26:00;96976.31;;;3.20;100.00
25080;BME280;13071;48.868;9.996;2023-02-02T01:28:28;96975.56;;;3.10;100.00
25080;BME280;13071;48.868;9.996;2023-02-02T01:30:55;96975.78;;;3.13;100.00
25080;BME280;13071;48.868;9.996;2023-02-02T01:33:22;96980.88;;;3.15;100.00
25080;BME280;13071;48.868;9.996;2023-02-02T01:35:50;96964.00;;;3.19;100.00
25080;BME280;13071;48.868;9.996;2023-02-02T01:38:19;96972.84;;;3.20;100.00
25080;BME280;13071;48.868;9.996;2023-02-02T01:40:47;96971.25;;;3.14;100.00
25080;BME280;13071;48.868;9.996;2023-02-02T01:43:21;96983.03;;;3.08;100.00
25080;BME280;13071;48.868;9.996;2023-02-02T01:45:49;96969.94;;;3.06;100.00
25080;BME280;13071;48.868;9.996;2023-02-02T01:48:17;96969.88;;;3.16;100.00
25080;BME280;13071;48.868;9.996;2023-02-02T01:50:46;96980.56;;;3.21;100.00
25080;BME280;13071;48.868;9.996;2023-02-02T01:53:15;96976.81;;;3.22;100.00
25080;BME280;13071;48.868;9.996;2023-02-02T01:55:47;96986.22;;;3.15;100.00
25080;BME280;13071;48.868;9.996;2023-02-02T01:58:17;96982.19;;;3.17;100.00
25080;BME280;13071;48.868;9.996;2023-02-02T02:00:44;96992.66;;;3.14;100.00
25080;BME280;13071;48.868;9.996;2023-02-02T02:03:13;96983.31;;;3.01;100.00
25080;BME280;13071;48.868;9.996;2023-02-02T02:05:43;96989.47;;;3.01;100.00
25080;BME280;13071;48.868;9.996;2023-02-02T02:08:16;96995.94;;;2.95;100.00
25080;BME280;13071;48.868;9.996;2023-02-02T02:10:44;96991.31;;;3.11;100.00
25080;BME280;13071;48.868;9.996;2023-02-02T02:13:12;96992.69;;;3.03;100.00
25080;BME280;13071;48.868;9.996;2023-02-02T02:15:44;96984.69;;;2.98;100.00
25080;BME280;13071;48.868;9.996;2023-02-02T02:18:39;96995.94;;;2.90;100.00
25080;BME280;13071;48.868;9.996;2023-02-02T02:21:41;97000.72;;;2.93;100.00
25080;BME280;13071;48.868;9.996;2023-02-02T02:28:09;96991.63;;;2.99;100.00
25080;BME280;13071;48.868;9.996;2023-02-02T02:30:52;96980.97;;;2.84;100.00
25080;BME280;13071;48.868;9.996;2023-02-02T02:33:26;96991.09;;;2.92;100.00
25080;BME280;13071;48.868;9.996;2023-02-02T02:36:01;96986.53;;;2.98;100.00
25080;BME280;13071;48.868;9.996;2023-02-02T02:38:34;96990.63;;;2.75;100.00
25080;BME280;13071;48.868;9.996;2023-02-02T02:41:04;96980.97;;;2.89;100.00
25080;BME280;13071;48.868;9.996;2023-02-02T02:43:37;96990.31;;;2.92;100.00
25080;BME280;13071;48.868;9.996;2023-02-02T02:46:06;96970.81;;;2.81;100.00
25080;BME280;13071;48.868;9.996;2023-02-02T02:48:34;96980.19;;;2.84;100.00
25080;BME280;13071;48.868;9.996;2023-02-02T02:51:06;96966.25;;;2.87;100.00
25080;BME280;13071;48.868;9.996;2023-02-02T02:53:33;96971.09;;;2.80;100.00
25080;BME280;13071;48.868;9.996;2023-02-02T02:56:08;96970.78;;;2.91;100.00
25080;BME280;13071;48.868;9.996;2023-02-02T02:58:45;96975.63;;;2.84;100.00
25080;BME280;13071;48.868;9.996;2023-02-02T03:01:20;96976.66;;;2.93;100.00
25080;BME280;13071;48.868;9.996;2023-02-02T03:04:03;96965.44;;;2.91;100.00
25080;BME280;13071;48.868;9.996;2023-02-02T03:06:36;96968.06;;;3.07;100.00
25080;BME280;13071;48.868;9.996;2023-02-02T03:09:10;96977.19;;;3.00;100.00
25080;BME280;13071;48.868;9.996;2023-02-02T03:11:38;96975.03;;;3.02;100.00
25080;BME280;13071;48.868;9.996;2023-02-02T03:14:04;96973.97;;;2.98;100.00
25080;BME280;13071;48.868;9.996;2023-02-02T03:16:34;96973.41;;;3.07;100.00
25080;BME280;13071;48.868;9.996;2023-02-02T03:19:03;96972.59;;;3.11;100.00
25080;BME280;13071;48.868;9.996;2023-02-02T03:21:30;96970.50;;;3.03;100.00
25080;BME280;13071;48.868;9.996;2023-02-02T03:23:57;96972.88;;;3.10;100.00
25080;BME280;13071;48.868;9.996;2023-02-02T03:26:23;96971.22;;;3.19;100.00
25080;BME280;13071;48.868;9.996;2023-02-02T03:28:50;96972.53;;;3.26;100.00
25080;BME280;13071;48.868;9.996;2023-02-02T03:31:17;96980.81;;;3.30;100.00
25080;BME280;13071;48.868;9.996;2023-02-02T03:33:44;96974.94;;;3.28;100.00
25080;BME280;13071;48.868;9.996;2023-02-02T03:36:12;96987.53;;;3.17;100.00
25080;BME280;13071;48.868;9.996;2023-02-02T03:38:38;96980.53;;;3.26;100.00
25080;BME280;13071;48.868;9.996;2023-02-02T03:41:05;96974.16;;;3.17;100.00
25080;BME280;13071;48.868;9.996;2023-02-02T03:43:32;96995.28;;;3.24;100.00
25080;BME280;13071;48.868;9.996;2023-02-02T03:46:00;96981.34;;;3.27;100.00
25080;BME280;13071;48.868;9.996;2023-02-02T03:48:28;96988.91;;;3.15;100.00
25080;BME280;13071;48.868;9.996;2023-02-02T03:50:55;96994.78;;;3.07;100.00
25080;BME280;13071;48.868;9.996;2023-02-02T03:53:24;97004.94;;;3.20;100.00
25080;BME280;13071;48.868;9.996;2023-02-02T03:55:50;96990.81;;;3.04;100.00
25080;BME280;13071;48.868;9.996;2023-02-02T03:58:17;97002.56;;;3.08;100.00
25080;BME280;13071;48.868;9.996;2023-02-02T04:00:46;97001.50;;;3.09;100.00
25080;BME280;13071;48.868;9.996;2023-02-02T04:03:12;97004.13;;;3.19;100.00
25080;BME280;13071;48.868;9.996;2023-02-02T04:05:39;97004.16;;;3.14;100.00
25080;BME280;13071;48.868;9.996;2023-02-02T04:08:06;97003.31;;;3.19;100.00
25080;BME280;13071;48.868;9.996;2023-02-02T04:10:33;97008.41;;;3.25;100.00
25080;BME280;13071;48.868;9.996;2023-02-02T04:13:00;97005.72;;;3.25;100.00
25080;BME280;13071;48.868;9.996;2023-02-02T04:15:27;97009.47;;;3.24;100.00
25080;BME280;13071;48.868;9.996;2023-02-02T04:17:53;97017.78;;;3.18;100.00
25080;BME280;13071;48.868;9.996;2023-02-02T04:20:20;97006.81;;;3.19;100.00
25080;BME280;13071;48.868;9.996;2023-02-02T04:22:46;97008.94;;;3.22;100.00
25080;BME280;13071;48.868;9.996;2023-02-02T04:25:13;97007.06;;;3.23;100.00
25080;BME280;13071;48.868;9.996;2023-02-02T04:27:41;97008.38;;;3.30;100.00
25080;BME280;13071;48.868;9.996;2023-02-02T04:30:09;97004.63;;;3.26;100.00
25080;BME280;13071;48.868;9.996;2023-02-02T04:32:35;97013.50;;;3.17;100.00
25080;BME280;13071;48.868;9.996;2023-02-02T04:35:02;97017.72;;;3.28;100.00
25080;BME280;13071;48.868;9.996;2023-02-02T04:37:29;97002.22;;;3.30;100.00
25080;BME280;13071;48.868;9.996;2023-02-02T04:39:56;97030.06;;;3.24;100.00
25080;BME280;13071;48.868;9.996;2023-02-02T04:42:23;97027.66;;;3.17;100.00
25080;BME280;13071;48.868;9.996;2023-02-02T04:44:51;97035.66;;;3.27;100.00
25080;BME280;13071;48.868;9.996;2023-02-02T04:47:17;97041.22;;;3.36;100.00
25080;BME280;13071;48.868;9.996;2023-02-02T04:49:44;97041.28;;;3.26;100.00
25080;BME280;13071;48.868;9.996;2023-02-02T04:52:11;97028.94;;;3.40;100.00
25080;BME280;13071;48.868;9.996;2023-02-02T04:54:37;97031.88;;;3.38;100.00
25080;BME280;13071;48.868;9.996;2023-02-02T04:57:04;97035.63;;;3.32;100.00
25080;BME280;13071;48.868;9.996;2023-02-02T04:59:30;97036.72;;;3.26;100.00
25080;BME280;13071;48.868;9.996;2023-02-02T05:02:00;97040.72;;;3.39;100.00
25080;BME280;13071;48.868;9.996;2023-02-02T05:04:27;97042.03;;;3.36;100.00
25080;BME280;13071;48.868;9.996;2023-02-02T05:06:53;97045.53;;;3.32;100.00
25080;BME280;13071;48.868;9.996;2023-02-02T05:09:20;97054.38;;;3.27;100.00
25080;BME280;13071;48.868;9.996;2023-02-02T05:11:47;97049.56;;;3.34;100.00
25080;BME280;13071;48.868;9.996;2023-02-02T05:14:13;97043.66;;;3.37;100.00
25080;BME280;13071;48.868;9.996;2023-02-02T05:16:42;97044.72;;;3.36;100.00
25080;BME280;13071;48.868;9.996;2023-02-02T05:19:11;97040.72;;;3.34;100.00
25080;BME280;13071;48.868;9.996;2023-02-02T05:21:37;97048.44;;;3.40;100.00
25080;BME280;13071;48.868;9.996;2023-02-02T05:24:04;97042.84;;;3.32;100.00
25080;BME280;13071;48.868;9.996;2023-02-02T05:26:31;97047.41;;;3.31;100.00
25080;BME280;13071;48.868;9.996;2023-02-02T05:28:57;97047.66;;;3.40;100.00
25080;BME280;13071;48.868;9.996;2023-02-02T05:31:24;97047.09;;;3.48;100.00
25080;BME280;13071;48.868;9.996;2023-02-02T05:33:50;97055.91;;;3.48;100.00
25080;BME280;13071;48.868;9.996;2023-02-02T05:36:18;97055.38;;;3.46;100.00
25080;BME280;13071;48.868;9.996;2023-02-02T05:38:45;97062.91;;;3.44;100.00
25080;BME280;13071;48.868;9.996;2023-02-02T05:41:11;97063.69;;;3.50;100.00
25080;BME280;13071;48.868;9.996;2023-02-02T05:43:38;97068.22;;;3.55;100.00
25080;BME280;13071;48.868;9.996;2023-02-02T05:46:05;97069.28;;;3.54;100.00
25080;BME280;13071;48.868;9.996;2023-02-02T05:48:31;97080.78;;;3.54;100.00
25080;BME280;13071;48.868;9.996;2023-02-02T05:51:01;97074.63;;;3.54;100.00
25080;BME280;13071;48.868;9.996;2023-02-02T05:53:30;97076.47;;;3.58;100.00
25080;BME280;13071;48.868;9.996;2023-02-02T05:55:57;97073.25;;;3.61;100.00
25080;BME280;13071;48.868;9.996;2023-02-02T05:58:24;97074.63;;;3.59;100.00
25080;BME280;13071;48.868;9.996;2023-02-02T06:00:52;97072.75;;;3.59;100.00
25080;BME280;13071;48.868;9.996;2023-02-02T06:03:19;97071.13;;;3.58;100.00
25080;BME280;13071;48.868;9.996;2023-02-02T06:05:45;97080.44;;;3.71;100.00
25080;BME280;13071;48.868;9.996;2023-02-02T06:08:12;97079.66;;;3.65;100.00
25080;BME280;13071;48.868;9.996;2023-02-02T06:10:40;97078.56;;;3.71;100.00
25080;BME280;13071;48.868;9.996;2023-02-02T06:13:07;97083.09;;;3.71;100.00
25080;BME280;13071;48.868;9.996;2023-02-02T06:15:35;97074.00;;;3.77;100.00
25080;BME280;13071;48.868;9.996;2023-02-02T06:18:02;97071.28;;;3.82;100.00
25080;BME280;13071;48.868;9.996;2023-02-02T06:20:31;97086.50;;;3.91;100.00
25080;BME280;13071;48.868;9.996;2023-02-02T06:22:58;97085.97;;;3.95;100.00
25080;BME280;13071;48.868;9.996;2023-02-02T06:25:24;97080.84;;;3.98;100.00
25080;BME280;13071;48.868;9.996;2023-02-02T06:27:55;97089.38;;;4.00;100.00
25080;BME280;13071;48.868;9.996;2023-02-02T06:30:22;97093.66;;;4.06;100.00
25080;BME280;13071;48.868;9.996;2023-02-02T06:32:48;97088.28;;;4.06;100.00
25080;BME280;13071;48.868;9.996;2023-02-02T06:35:15;97094.19;;;4.08;100.00
25080;BME280;13071;48.868;9.996;2023-02-02T06:37:42;97099.56;;;4.03;100.00
25080;BME280;13071;48.868;9.996;2023-02-02T06:40:09;97098.81;;;3.92;100.00
25080;BME280;13071;48.868;9.996;2023-02-02T06:42:36;97094.56;;;3.86;100.00
25080;BME280;13071;48.868;9.996;2023-02-02T06:45:05;97093.22;;;3.89;100.00
25080;BME280;13071;48.868;9.996;2023-02-02T06:47:32;97098.31;;;3.85;100.00
25080;BME280;13071;48.868;9.996;2023-02-02T06:49:58;97103.69;;;3.75;100.00
25080;BME280;13071;48.868;9.996;2023-02-02T06:52:25;97103.16;;;3.78;100.00
25080;BME280;13071;48.868;9.996;2023-02-02T06:54:51;97102.97;;;3.65;100.00
25080;BME280;13071;48.868;9.996;2023-02-02T06:57:18;97101.13;;;3.55;100.00
25080;BME280;13071;48.868;9.996;2023-02-02T06:59:45;97108.03;;;3.61;100.00
25080;BME280;13071;48.868;9.996;2023-02-02T07:02:13;97107.00;;;3.52;100.00
25080;BME280;13071;48.868;9.996;2023-02-02T07:04:39;97104.91;;;3.39;100.00
25080;BME280;13071;48.868;9.996;2023-02-02T07:07:06;97111.06;;;3.44;100.00
25080;BME280;13071;48.868;9.996;2023-02-02T07:09:33;97115.81;;;3.58;100.00
25080;BME280;13071;48.868;9.996;2023-02-02T07:12:00;97114.22;;;3.52;100.00
25080;BME280;13071;48.868;9.996;2023-02-02T07:14:26;97108.91;;;3.46;100.00
25080;BME280;13071;48.868;9.996;2023-02-02T07:16:53;97116.69;;;3.43;100.00
25080;BME280;13071;48.868;9.996;2023-02-02T07:19:21;97118.81;;;3.41;100.00
25080;BME280;13071;48.868;9.996;2023-02-02T07:21:47;97112.66;;;3.40;100.00
25080;BME280;13071;48.868;9.996;2023-02-02T07:24:14;97123.34;;;3.40;100.00
25080;BME280;13071;48.868;9.996;2023-02-02T07:26:40;97116.44;;;3.39;100.00
25080;BME280;13071;48.868;9.996;2023-02-02T07:29:08;97116.66;;;3.48;100.00
25080;BME280;13071;48.868;9.996;2023-02-02T07:31:37;97120.41;;;3.42;100.00
25080;BME280;13071;48.868;9.996;2023-02-02T07:34:04;97113.22;;;3.37;100.00
25080;BME280;13071;48.868;9.996;2023-02-02T07:36:32;97125.50;;;3.43;100.00
25080;BME280;13071;48.868;9.996;2023-02-02T07:38:58;97119.38;;;3.38;100.00
25080;BME280;13071;48.868;9.996;2023-02-02T07:41:28;97124.69;;;3.48;100.00
25080;BME280;13071;48.868;9.996;2023-02-02T07:43:55;97124.13;;;3.51;100.00
25080;BME280;13071;48.868;9.996;2023-02-02T07:46:21;97132.72;;;3.43;100.00
25080;BME280;13071;48.868;9.996;2023-02-02T07:48:48;97127.13;;;3.44;100.00
25080;BME280;13071;48.868;9.996;2023-02-02T07:51:16;97126.81;;;3.51;100.00
25080;BME280;13071;48.868;9.996;2023-02-02T07:53:45;97128.16;;;3.48;100.00
25080;BME280;13071;48.868;9.996;2023-02-02T07:56:13;97127.91;;;3.45;100.00
25080;BME280;13071;48.868;9.996;2023-02-02T07:58:40;97126.84;;;3.41;100.00
25080;BME280;13071;48.868;9.996;2023-02-02T08:01:09;97128.47;;;3.37;100.00
25080;BME280;13071;48.868;9.996;2023-02-02T08:03:36;97119.09;;;3.44;100.00
25080;BME280;13071;48.868;9.996;2023-02-02T08:06:08;97115.09;;;3.27;100.00
25080;BME280;13071;48.868;9.996;2023-02-02T08:08:35;97124.47;;;3.34;100.00
25080;BME280;13071;48.868;9.996;2023-02-02T08:11:04;97127.63;;;3.41;100.00
25080;BME280;13071;48.868;9.996;2023-02-02T08:13:32;97126.31;;;3.49;100.00
25080;BME280;13071;48.868;9.996;2023-02-02T08:15:59;97124.69;;;3.43;100.00
25080;BME280;13071;48.868;9.996;2023-02-02T08:18:26;97122.53;;;3.55;100.00
25080;BME280;13071;48.868;9.996;2023-02-02T08:20:52;97134.59;;;3.47;100.00
25080;BME280;13071;48.868;9.996;2023-02-02T08:23:19;97123.59;;;3.59;100.00
25080;BME280;13071;48.868;9.996;2023-02-02T08:25:48;97139.09;;;3.57;100.00
25080;BME280;13071;48.868;9.996;2023-02-02T08:28:16;97146.63;;;3.50;100.00
25080;BME280;13071;48.868;9.996;2023-02-02T08:30:43;97152.75;;;3.56;100.00
25080;BME280;13071;48.868;9.996;2023-02-02T08:33:09;97160.78;;;3.61;100.00
25080;BME280;13071;48.868;9.996;2023-02-02T08:35:39;97161.28;;;3.68;100.00
25080;BME280;13071;48.868;9.996;2023-02-02T08:38:06;97162.34;;;3.72;100.00
25080;BME280;13071;48.868;9.996;2023-02-02T08:40:32;97167.47;;;3.68;100.00
25080;BME280;13071;48.868;9.996;2023-02-02T08:42:59;97166.91;;;3.71;100.00
25080;BME280;13071;48.868;9.996;2023-02-02T08:45:27;97164.72;;;3.83;100.00
25080;BME280;13071;48.868;9.996;2023-02-02T08:47:53;97166.03;;;3.86;100.00
25080;BME280;13071;48.868;9.996;2023-02-02T08:50:20;97161.00;;;3.79;100.00
25080;BME280;13071;48.868;9.996;2023-02-02T08:52:47;97155.09;;;3.82;100.00
25080;BME280;13071;48.868;9.996;2023-02-02T08:55:13;97155.06;;;3.87;100.00
25080;BME280;13071;48.868;9.996;2023-02-02T08:57:40;97154.25;;;3.92;100.00
25080;BME280;13071;48.868;9.996;2023-02-02T09:00:08;97154.78;;;3.94;100.00
25080;BME280;13071;48.868;9.996;2023-02-02T09:02:37;97153.16;;;3.98;100.00
25080;BME280;13071;48.868;9.996;2023-02-02T09:05:04;97160.59;;;4.06;100.00
25080;BME280;13071;48.868;9.996;2023-02-02T09:07:31;97156.03;;;4.12;100.00
25080;BME280;13071;48.868;9.996;2023-02-02T09:09:58;97155.75;;;4.13;100.00
25080;BME280;13071;48.868;9.996;2023-02-02T09:12:25;97150.69;;;4.12;100.00
25080;BME280;13071;48.868;9.996;2023-02-02T09:14:51;97158.44;;;4.13;100.00
25080;BME280;13071;48.868;9.996;2023-02-02T09:17:18;97156.53;;;4.19;100.00
25080;BME280;13071;48.868;9.996;2023-02-02T09:19:46;97159.72;;;4.26;100.00
25080;BME280;13071;48.868;9.996;2023-02-02T09:22:12;97158.09;;;4.25;100.00
25080;BME280;13071;48.868;9.996;2023-02-02T09:24:39;97152.72;;;4.30;100.00
25080;BME280;13071;48.868;9.996;2023-02-02T09:27:05;97154.88;;;4.28;100.00
25080;BME280;13071;48.868;9.996;2023-02-02T09:29:32;97157.53;;;4.33;100.00
25080;BME280;13071;48.868;9.996;2023-02-02T09:31:59;97149.53;;;4.28;100.00
25080;BME280;13071;48.868;9.996;2023-02-02T09:34:25;97158.03;;;4.35;100.00
25080;BME280;13071;48.868;9.996;2023-02-02T09:36:53;97165.56;;;4.33;100.00
25080;BME280;13071;48.868;9.996;2023-02-02T09:39:20;97171.72;;;4.39;100.00
25080;BME280;13071;48.868;9.996;2023-02-02T09:42:07;97178.66;;;4.40;100.00
25080;BME280;13071;48.868;9.996;2023-02-02T09:44:54;97186.16;;;4.43;100.00
25080;BME280;13071;48.868;9.996;2023-02-02T09:47:24;97181.06;;;4.41;100.00
25080;BME280;13071;48.868;9.996;2023-02-02T09:49:56;97180.78;;;4.43;100.00
25080;BME280;13071;48.868;9.996;2023-02-02T09:52:28;97174.63;;;4.42;100.00
25080;BME280;13071;48.868;9.996;2023-02-02T09:54:59;97168.94;;;4.54;100.00
25080;BME280;13071;48.868;9.996;2023-02-02T09:57:30;97186.09;;;4.53;100.00
25080;BME280;13071;48.868;9.996;2023-02-02T09:59:58;97171.91;;;4.52;100.00
25080;BME280;13071;48.868;9.996;2023-02-02T10:02:29;97178.56;;;4.55;100.00
25080;BME280;13071;48.868;9.996;2023-02-02T10:05:02;97180.75;;;4.53;100.00
25080;BME280;13071;48.868;9.996;2023-02-02T10:07:37;97169.94;;;4.63;100.00
25080;BME280;13071;48.868;9.996;2023-02-02T10:10:10;97202.13;;;4.63;100.00
25080;BME280;13071;48.868;9.996;2023-02-02T10:12:42;97197.59;;;4.58;100.00
25080;BME280;13071;48.868;9.996;2023-02-02T10:15:16;97201.56;;;4.66;100.00
25080;BME280;13071;48.868;9.996;2023-02-02T10:17:50;97187.91;;;4.62;100.00
25080;BME280;13071;48.868;9.996;2023-02-02T10:20:30;97187.31;;;4.70;100.00
25080;BME280;13071;48.868;9.996;2023-02-02T10:23:09;97195.13;;;4.67;100.00
25080;BME280;13071;48.868;9.996;2023-02-02T10:25:45;97186.28;;;4.66;100.00
25080;BME280;13071;48.868;9.996;2023-02-02T10:28:17;97191.38;;;4.68;100.00
25080;BME280;13071;48.868;9.996;2023-02-02T10:30:45;97185.47;;;4.66;100.00
25080;BME280;13071;48.868;9.996;2023-02-02T10:33:20;97179.03;;;4.67;100.00
25080;BME280;13071;48.868;9.996;2023-02-02T10:35:56;97183.31;;;4.68;100.00
25080;BME280;13071;48.868;9.996;2023-02-02T10:38:35;97188.38;;;4.69;100.00
25080;BME280;13071;48.868;9.996;2023-02-02T10:41:12;97191.59;;;4.71;100.00
25080;BME280;13071;48.868;9.996;2023-02-02T10:44:01;97196.44;;;4.69;100.00
25080;BME280;13071;48.868;9.996;2023-02-02T10:46:32;97199.91;;;4.70;100.00
25080;BME280;13071;48.868;9.996;2023-02-02T10:49:11;97196.44;;;4.69;100.00
25080;BME280;13071;48.868;9.996;2023-02-02T10:51:44;97199.06;;;4.79;100.00
25080;BME280;13071;48.868;9.996;2023-02-02T10:54:28;97207.91;;;4.80;100.00
25080;BME280;13071;48.868;9.996;2023-02-02T10:57:00;97207.91;;;4.80;100.00
25080;BME280;13071;48.868;9.996;2023-02-02T10:59:31;97214.31;;;4.84;100.00
25080;BME280;13071;48.868;9.996;2023-02-02T11:01:58;97211.63;;;4.84;100.00
25080;BME280;13071;48.868;9.996;2023-02-02T11:04:25;97200.84;;;4.89;100.00
25080;BME280;13071;48.868;9.996;2023-02-02T11:07:09;97214.53;;;4.93;100.00
25080;BME280;13071;48.868;9.996;2023-02-02T11:09:45;97213.19;;;4.90;100.00
25080;BME280;13071;48.868;9.996;2023-02-02T11:12:16;97215.88;;;4.90;100.00
25080;BME280;13071;48.868;9.996;2023-02-02T11:14:48;97218.06;;;4.88;100.00
25080;BME280;13071;48.868;9.996;2023-02-02T11:17:19;97217.22;;;4.93;100.00
25080;BME280;13071;48.868;9.996;2023-02-02T11:19:47;97204.06;;;4.91;100.00
25080;BME280;13071;48.868;9.996;2023-02-02T11:22:30;97204.59;;;4.93;100.00
25080;BME280;13071;48.868;9.996;2023-02-02T11:25:01;97206.75;;;4.91;100.00
25080;BME280;13071;48.868;9.996;2023-02-02T11:27:31;97211.31;;;4.91;100.00
25080;BME280;13071;48.868;9.996;2023-02-02T11:30:00;97205.69;;;4.92;100.00
25080;BME280;13071;48.868;9.996;2023-02-02T11:32:35;97205.94;;;4.91;100.00
25080;BME280;13071;48.868;9.996;2023-02-02T11:35:18;97210.00;;;4.88;100.00
25080;BME280;13071;48.868;9.996;2023-02-02T11:37:54;97206.78;;;4.86;100.00
25080;BME280;13071;48.868;9.996;2023-02-02T11:40:27;97215.59;;;4.92;100.00
25080;BME280;13071;48.868;9.996;2023-02-02T11:42:56;97212.69;;;4.88;100.00
25080;BME280;13071;48.868;9.996;2023-02-02T11:45:28;97205.41;;;4.89;100.00
25080;BME280;13071;48.868;9.996;2023-02-02T11:48:00;97214.22;;;4.94;100.00
25080;BME280;13071;48.868;9.996;2023-02-02T11:50:27;97205.69;;;4.92;100.00
25080;BME280;13071;48.868;9.996;2023-02-02T11:52:54;97207.56;;;4.92;100.00
25080;BME280;13071;48.868;9.996;2023-02-02T11:55:26;97215.06;;;4.90;100.00
25080;BME280;13071;48.868;9.996;2023-02-02T11:58:24;97202.47;;;4.90;100.00
25080;BME280;13071;48.868;9.996;2023-02-02T12:00:57;97200.66;;;4.81;100.00
25080;BME280;13071;48.868;9.996;2023-02-02T12:03:32;97204.97;;;4.76;100.00
25080;BME280;13071;48.868;9.996;2023-02-02T12:06:00;97207.94;;;4.75;100.00
25080;BME280;13071;48.868;9.996;2023-02-02T12:08:42;97206.59;;;4.77;100.00
25080;BME280;13071;48.868;9.996;2023-02-02T12:11:20;97201.22;;;4.77;100.00
25080;BME280;13071;48.868;9.996;2023-02-02T12:13:58;97214.59;;;4.83;100.00
25080;BME280;13071;48.868;9.996;2023-02-02T12:16:38;97210.03;;;4.83;100.00
25080;BME280;13071;48.868;9.996;2023-02-02T12:19:33;97198.78;;;4.81;100.00
25080;BME280;13071;48.868;9.996;2023-02-02T12:22:11;97211.13;;;4.82;100.00
25080;BME280;13071;48.868;9.996;2023-02-02T12:24:50;97207.09;;;4.79;100.00
25080;BME280;13071;48.868;9.996;2023-02-02T12:27:27;97209.25;;;4.83;100.00
25080;BME280;13071;48.868;9.996;2023-02-02T12:30:08;97199.56;;;4.87;100.00
25080;BME280;13071;48.868;9.996;2023-02-02T12:32:50;97209.50;;;4.81;100.00
25080;BME280;13071;48.868;9.996;2023-02-02T12:35:39;97201.75;;;4.74;100.00
25080;BME280;13071;48.868;9.996;2023-02-02T12:38:17;97214.84;;;4.86;100.00
25080;BME280;13071;48.868;9.996;2023-02-02T12:41:04;97212.47;;;4.79;100.00
25080;BME280;13071;48.868;9.996;2023-02-02T12:43:39;97197.16;;;4.80;100.00
25080;BME280;13071;48.868;9.996;2023-02-02T12:46:26;97209.53;;;4.76;100.00
25080;BME280;13071;48.868;9.996;2023-02-02T12:49:36;97198.25;;;4.79;100.00
25080;BME280;13071;48.868;9.996;2023-02-02T12:52:16;97197.16;;;4.80;100.00
25080;BME280;13071;48.868;9.996;2023-02-02T12:55:08;97200.66;;;4.81;100.00
25080;BME280;13071;48.868;9.996;2023-02-02T12:57:48;97207.66;;;4.76;100.00
25080;BME280;13071;48.868;9.996;2023-02-02T13:00:31;97203.91;;;4.77;100.00
25080;BME280;13071;48.868;9.996;2023-02-02T13:03:17;97217.63;;;4.71;100.00
25080;BME280;13071;48.868;9.996;2023-02-02T13:05:57;97212.78;;;4.73;100.00
25080;BME280;13071;48.868;9.996;2023-02-02T13:08:32;97210.09;;;4.73;100.00
25080;BME280;13071;48.868;9.996;2023-02-02T13:11:05;97223.22;;;4.74;100.00
25080;BME280;13071;48.868;9.996;2023-02-02T13:13:52;97225.91;;;4.74;100.00
25080;BME280;13071;48.868;9.996;2023-02-02T13:16:21;97213.81;;;4.77;100.00
25080;BME280;13071;48.868;9.996;2023-02-02T13:18:53;97213.59;;;4.73;100.00
25080;BME280;13071;48.868;9.996;2023-02-02T13:21:22;97224.81;;;4.75;100.00